Time;durP1;ratioP1;P1;durP2;ratioP2;P2;SDS_P1;SDS_P2;PMS_P1;PMS_P2;Temp;Humidity;BMP_temperature;BMP_pressure;BME280_temperature;BME280_humidity;BME280_pressure;Samples;Min_cycle;Max_cycle;Signal;HPM_P1;HPM_P2
2023/04/11 00:02:05;;;;;;;;;;;;;;;15.85;73.98;99725.78;5070602;28;20451;-60
2023/04/11 00:04:32;;;;;;;;;;;;;;;15.76;74.20;99711.09;5073727;28;19957;-60
2023/04/11 00:06:58;;;;;;;;;;;;;;;15.62;75.89;99706.53;5079455;28;20386;-60
2023/04/11 00:09:23;;;;;;;;;;;;;;;15.57;77.31;99692.53;5070341;28;19938;-61
2023/04/11 00:11:48;;;;;;;;;;;;;;;15.57;78.86;99684.47;5070348;28;19923;-61
2023/04/11 00:14:14;;;;;;;;;;;;;;;15.50;80.84;99682.25;5070608;28;19932;-60
2023/04/11 00:16:40;;;;;;;;;;;;;;;15.35;82.36;99675.06;5071005;28;19946;-60
2023/04/11 00:19:06;;;;;;;;;;;;;;;15.30;83.31;99704.81;5066400;28;19937;-60
2023/04/11 00:21:31;;;;;;;;;;;;;;;15.34;83.95;99714.38;5050961;28;19942;-60
2023/04/11 00:23:56;;;;;;;;;;;;;;;15.31;85.29;99705.66;5050756;28;19931;-60
2023/04/11 00:26:22;;;;;;;;;;;;;;;15.33;84.57;99693.03;5070197;28;19935;-61
2023/04/11 00:28:47;;;;;;;;;;;;;;;15.33;84.75;99691.22;5069915;28;19961;-61
2023/04/11 00:31:12;;;;;;;;;;;;;;;15.32;84.30;99683.28;5070108;28;19932;-61
2023/04/11 00:33:38;;;;;;;;;;;;;;;15.29;85.00;99686.97;5069612;28;19937;-61
2023/04/11 00:36:03;;;;;;;;;;;;;;;14.98;86.60;99646.81;5071032;28;20020;-61
2023/04/11 00:38:29;;;;;;;;;;;;;;;15.20;85.66;99687.53;5071007;28;19941;-61
2023/04/11 00:40:54;;;;;;;;;;;;;;;15.15;87.04;99711.03;5069843;28;20323;-60
2023/04/11 00:43:19;;;;;;;;;;;;;;;15.21;86.83;99715.16;5071014;28;19931;-61
2023/04/11 00:45:45;;;;;;;;;;;;;;;15.22;87.84;99717.75;5070123;28;19936;-61
2023/04/11 00:48:10;;;;;;;;;;;;;;;15.29;88.39;99745.06;5070795;28;19932;-61
2023/04/11 00:50:40;;;;;;;;;;;;;;;15.31;89.53;99773.53;5071001;28;19925;-60
2023/04/11 00:53:05;;;;;;;;;;;;;;;15.05;88.38;99789.28;5068585;28;19939;-61
2023/04/11 00:55:31;;;;;;;;;;;;;;;14.57;85.25;99803.47;5068810;28;19967;-60
2023/04/11 00:57:57;;;;;;;;;;;;;;;14.08;86.81;99799.75;5068094;28;20403;-60
2023/04/11 01:00:23;;;;;;;;;;;;;;;13.91;88.25;99813.09;5069949;28;19934;-60
2023/04/11 01:02:48;;;;;;;;;;;;;;;13.81;91.21;99818.94;5063309;28;19976;-61
2023/04/11 01:05:14;;;;;;;;;;;;;;;13.72;92.49;99801.53;5073920;28;20042;-60
2023/04/11 01:07:42;;;;;;;;;;;;;;;13.49;93.15;99807.16;5070790;28;19932;-60
2023/04/11 01:10:07;;;;;;;;;;;;;;;13.33;94.39;99800.78;5070769;28;19970;-60
2023/04/11 01:12:33;;;;;;;;;;;;;;;13.36;94.65;99787.28;5070600;28;19932;-60
2023/04/11 01:14:58;;;;;;;;;;;;;;;13.34;95.39;99789.19;5070404;28;19949;-59
2023/04/11 01:17:24;;;;;;;;;;;;;;;13.38;95.71;99787.22;5069534;28;19988;-60
2023/04/11 01:19:50;;;;;;;;;;;;;;;13.35;95.48;99784.69;5070503;28;20307;-60
2023/04/11 01:22:16;;;;;;;;;;;;;;;13.34;95.82;99782.97;5069413;28;19935;-60
2023/04/11 01:24:42;;;;;;;;;;;;;;;13.34;96.49;99788.31;5068825;28;19975;-60
2023/04/11 01:27:08;;;;;;;;;;;;;;;13.28;96.65;99788.59;5061562;28;19932;-60
2023/04/11 01:29:33;;;;;;;;;;;;;;;13.28;97.90;99794.78;5060547;28;19978;-60
2023/04/11 01:31:58;;;;;;;;;;;;;;;13.29;98.11;99795.66;5069262;28;20008;-60
2023/04/11 01:34:27;;;;;;;;;;;;;;;13.31;98.02;99789.28;5069139;28;19940;-59
2023/04/11 01:36:52;;;;;;;;;;;;;;;13.30;98.99;99797.38;5068852;28;19996;-59
2023/04/11 01:39:17;;;;;;;;;;;;;;;13.35;99.14;99803.38;5068497;28;19931;-59
2023/04/11 01:41:43;;;;;;;;;;;;;;;13.31;99.76;99805.31;5069892;28;19949;-60
2023/04/11 01:44:09;;;;;;;;;;;;;;;13.21;99.75;99806.72;5069051;28;19928;-61
2023/04/11 01:46:34;;;;;;;;;;;;;;;13.18;100.00;99801.50;5069977;28;20650;-63
2023/04/11 01:49:00;;;;;;;;;;;;;;;13.27;100.00;99792.19;5057220;28;19934;-64
2023/04/11 01:51:26;;;;;;;;;;;;;;;13.31;100.00;99789.28;5069019;28;19967;-63
2023/04/11 01:53:51;;;;;;;;;;;;;;;13.18;100.00;99804.16;5070379;28;19927;-61
2023/04/11 01:56:16;;;;;;;;;;;;;;;13.18;100.00;99798.81;5069330;28;20006;-61
2023/04/11 01:58:41;;;;;;;;;;;;;;;13.24;100.00;99810.09;5070067;28;19928;-61
2023/04/11 02:01:07;;;;;;;;;;;;;;;13.25;100.00;99802.94;5069069;28;19990;-62
2023/04/11 02:03:32;;;;;;;;;;;;;;;13.28;100.00;99802.81;5069477;28;20368;-61
2023/04/11 02:05:57;;;;;;;;;;;;;;;13.31;100.00;99807.16;5066862;28;20045;-62
2023/04/11 02:08:23;;;;;;;;;;;;;;;13.30;99.56;99794.72;5067724;28;19986;-62
2023/04/11 02:10:48;;;;;;;;;;;;;;;13.23;99.61;99795.97;5067456;28;20337;-62
2023/04/11 02:13:13;;;;;;;;;;;;;;;13.18;100.00;99796.16;5067975;28;19931;-62
2023/04/11 02:15:39;;;;;;;;;;;;;;;13.17;100.00;99797.97;5068569;28;19948;-61
2023/04/11 02:18:05;;;;;;;;;;;;;;;13.12;100.00;99793.78;5068425;28;19937;-61
2023/04/11 02:20:31;;;;;;;;;;;;;;;13.09;100.00;99784.13;5066593;28;19985;-61
2023/04/11 02:22:57;;;;;;;;;;;;;;;13.05;100.00;99803.88;5049766;28;19934;-61
2023/04/11 02:25:22;;;;;;;;;;;;;;;13.03;100.00;99805.75;5064471;28;20372;-60
2023/04/11 02:27:48;;;;;;;;;;;;;;;12.91;100.00;99792.94;5070425;28;20009;-60
2023/04/11 02:30:13;;;;;;;;;;;;;;;12.87;100.00;99787.78;5070458;28;20302;-60
2023/04/11 02:32:38;;;;;;;;;;;;;;;12.80;100.00;99781.88;5070674;28;19934;-59
2023/04/11 02:35:04;;;;;;;;;;;;;;;12.65;100.00;99787.88;5069579;28;19956;-60
2023/04/11 02:37:29;;;;;;;;;;;;;;;12.61;100.00;99770.31;5072781;28;19916;-60
2023/04/11 02:39:55;;;;;;;;;;;;;;;12.56;100.00;99780.31;5075343;28;19930;-60
2023/04/11 02:42:20;;;;;;;;;;;;;;;12.65;100.00;99787.88;5075537;28;19924;-60
2023/04/11 02:44:45;;;;;;;;;;;;;;;12.57;100.00;99790.03;5073433;28;20243;-59
2023/04/11 02:47:11;;;;;;;;;;;;;;;12.51;100.00;99774.31;5074217;28;19935;-60
2023/04/11 02:49:36;;;;;;;;;;;;;;;12.57;100.00;99790.03;5072578;28;19927;-59
2023/04/11 02:52:02;;;;;;;;;;;;;;;12.49;100.00;99818.84;5073368;28;19933;-59
2023/04/11 02:54:27;;;;;;;;;;;;;;;12.49;100.00;99808.19;5072747;28;19944;-59
2023/04/11 02:56:54;;;;;;;;;;;;;;;12.63;100.00;99821.81;5066800;28;20376;-59
2023/04/11 02:59:20;;;;;;;;;;;;;;;12.74;100.00;99808.84;5068650;28;19983;-58
2023/04/11 03:01:45;;;;;;;;;;;;;;;12.81;100.00;99815.66;5072588;28;19951;-59
2023/04/11 03:04:10;;;;;;;;;;;;;;;12.91;100.00;99819.66;5061283;28;20309;-59
2023/04/11 03:06:36;;;;;;;;;;;;;;;12.95;100.00;99812.34;5076187;28;19941;-59
2023/04/11 03:09:02;;;;;;;;;;;;;;;12.92;100.00;99817.81;5072397;28;20333;-59
2023/04/11 03:11:28;;;;;;;;;;;;;;;12.92;100.00;99824.03;5071634;28;19980;-59
2023/04/11 03:13:53;;;;;;;;;;;;;;;13.02;100.00;99820.03;5072309;28;19966;-59
2023/04/11 03:16:18;;;;;;;;;;;;;;;13.06;100.00;99816.28;5072930;28;19992;-59
2023/04/11 03:18:44;;;;;;;;;;;;;;;13.05;100.00;99833.25;5071839;28;19941;-59
2023/04/11 03:21:10;;;;;;;;;;;;;;;13.01;100.00;99834.31;5072865;28;20405;-58
2023/04/11 03:23:36;;;;;;;;;;;;;;;13.04;100.00;99855.56;5072853;28;19934;-59
2023/04/11 03:26:02;;;;;;;;;;;;;;;12.97;100.00;99848.72;5072659;28;20032;-58
2023/04/11 03:28:27;;;;;;;;;;;;;;;12.88;100.00;99843.78;5071797;28;20041;-58
2023/04/11 03:30:53;;;;;;;;;;;;;;;12.75;100.00;99847.09;5072377;28;20454;-58
2023/04/11 03:33:18;;;;;;;;;;;;;;;12.72;100.00;99857.88;5072591;28;19929;-58
2023/04/11 03:35:43;;;;;;;;;;;;;;;12.70;100.00;99857.94;5067410;28;20031;-58
2023/04/11 03:38:09;;;;;;;;;;;;;;;12.69;100.00;99858.00;5071452;28;19936;-58
2023/04/11 03:40:34;;;;;;;;;;;;;;;12.60;100.00;99863.75;5072239;28;19984;-58
2023/04/11 03:43:00;;;;;;;;;;;;;;;12.57;100.00;99870.06;5072323;28;19928;-58
2023/04/11 03:45:26;;;;;;;;;;;;;;;12.60;100.00;99874.44;5071221;28;19930;-59
2023/04/11 03:47:51;;;;;;;;;;;;;;;12.60;100.00;99875.28;5071560;28;19963;-60
2023/04/11 03:50:16;;;;;;;;;;;;;;;12.58;100.00;99870.97;5068687;28;19936;-59
2023/04/11 03:52:42;;;;;;;;;;;;;;;12.60;100.00;99877.09;5064649;28;20020;-58
2023/04/11 03:55:07;;;;;;;;;;;;;;;12.52;100.00;99874.75;5071904;28;20741;-58
2023/04/11 03:57:32;;;;;;;;;;;;;;;12.43;100.00;99883.16;5072150;28;20013;-58
2023/04/11 03:59:58;;;;;;;;;;;;;;;12.31;100.00;99894.31;5070867;28;19927;-58
2023/04/11 04:02:23;;;;;;;;;;;;;;;12.29;99.91;99890.84;5070115;28;19936;-58
2023/04/11 04:04:57;;;;;;;;;;;;;;;12.27;98.66;99906.06;5077115;28;19964;-58
2023/04/11 04:07:22;;;;;;;;;;;;;;;12.34;98.59;99904.84;5073628;28;19939;-58
2023/04/11 04:09:48;;;;;;;;;;;;;;;12.30;97.08;99903.28;5070441;28;19969;-58
2023/04/11 04:12:13;;;;;;;;;;;;;;;12.25;96.09;99904.38;5065159;28;19934;-58
2023/04/11 04:14:38;;;;;;;;;;;;;;;12.22;96.19;99908.06;5051340;28;19932;-58
2023/04/11 04:17:04;;;;;;;;;;;;;;;12.21;95.71;99902.78;5064252;28;20304;-59
2023/04/11 04:19:29;;;;;;;;;;;;;;;12.24;96.28;99905.31;5071530;28;19932;-59
2023/04/11 04:21:56;;;;;;;;;;;;;;;12.30;95.88;99897.94;5071045;28;19936;-58
2023/04/11 04:24:24;;;;;;;;;;;;;;;12.30;95.80;99895.28;5071530;28;20023;-59
2023/04/11 04:26:50;;;;;;;;;;;;;;;12.24;95.46;99898.16;5071064;28;19953;-59
2023/04/11 04:29:16;;;;;;;;;;;;;;;12.24;94.97;99908.84;5070292;28;19935;-59
2023/04/11 04:31:42;;;;;;;;;;;;;;;12.12;93.93;99914.69;5071461;28;20086;-59
2023/04/11 04:34:07;;;;;;;;;;;;;;;11.97;93.18;99909.09;5070948;28;20025;-58
2023/04/11 04:36:46;;;;;;;;;;;;;;;11.98;93.09;99911.69;5070310;28;19952;-58
2023/04/11 04:39:18;;;;;;;;;;;;;;;11.99;93.34;99917.91;5070518;28;19964;-59
2023/04/11 04:41:43;;;;;;;;;;;;;;;11.86;91.73;99929.03;5070842;28;20734;-58
2023/04/11 04:44:09;;;;;;;;;;;;;;;11.86;91.82;99930.84;5069706;28;19936;-58
2023/04/11 04:46:35;;;;;;;;;;;;;;;11.93;92.50;99932.31;5070399;28;19952;-58
2023/04/11 04:49:02;;;;;;;;;;;;;;;11.90;91.86;99940.44;5069262;28;19941;-58
2023/04/11 04:51:29;;;;;;;;;;;;;;;11.95;91.65;99959.78;5070234;28;19936;-58
2023/04/11 04:53:56;;;;;;;;;;;;;;;11.92;91.78;99965.25;5069511;28;20395;-58
2023/04/11 04:56:21;;;;;;;;;;;;;;;12.00;91.89;99973.81;5070396;28;19966;-58
2023/04/11 04:58:46;;;;;;;;;;;;;;;11.99;92.03;99972.09;5070950;28;19927;-58
2023/04/11 05:01:12;;;;;;;;;;;;;;;11.98;92.13;99983.66;5069002;28;19937;-58
2023/04/11 05:03:37;;;;;;;;;;;;;;;11.90;91.98;99985.75;5069947;28;19916;-58
2023/04/11 05:06:02;;;;;;;;;;;;;;;11.94;92.32;99988.25;5081274;28;19946;-59
2023/04/11 05:08:28;;;;;;;;;;;;;;;11.95;92.01;99986.44;5065999;28;19936;-58
2023/04/11 05:10:53;;;;;;;;;;;;;;;11.98;91.76;99981.00;5068989;28;19928;-58
2023/04/11 05:13:18;;;;;;;;;;;;;;;12.02;92.39;99981.75;5056814;28;19935;-58
2023/04/11 05:15:48;;;;;;;;;;;;;;;12.07;92.27;99993.97;5048422;28;19958;-58
2023/04/11 05:18:13;;;;;;;;;;;;;;;12.18;92.13;99994.41;5061857;28;20378;-58
2023/04/11 05:20:38;;;;;;;;;;;;;;;12.26;91.69;100002.97;5068371;28;19927;-58
2023/04/11 05:23:03;;;;;;;;;;;;;;;12.22;91.74;100012.06;5069200;28;19973;-58
2023/04/11 05:25:29;;;;;;;;;;;;;;;12.11;91.17;100003.59;5070087;28;20247;-58
2023/04/11 05:27:54;;;;;;;;;;;;;;;12.16;91.93;100004.28;5069099;28;19957;-58
2023/04/11 05:30:20;;;;;;;;;;;;;;;12.08;90.28;100009.03;5070327;28;19933;-58
2023/04/11 05:32:45;;;;;;;;;;;;;;;12.02;90.35;100006.63;5070404;28;19933;-58
2023/04/11 05:35:10;;;;;;;;;;;;;;;12.04;88.87;100010.09;5069489;28;19963;-58
2023/04/11 05:37:36;;;;;;;;;;;;;;;12.04;88.21;100015.44;5070112;28;19977;-58
2023/04/11 05:40:01;;;;;;;;;;;;;;;12.07;88.37;100011.78;5070263;28;20388;-58
2023/04/11 05:42:26;;;;;;;;;;;;;;;12.05;88.54;100017.16;5053640;28;19986;-58
2023/04/11 05:44:52;;;;;;;;;;;;;;;12.15;88.23;100013.22;5054344;28;19934;-58
2023/04/11 05:47:17;;;;;;;;;;;;;;;12.08;87.01;100030.38;5052102;28;19961;-58
2023/04/11 05:49:42;;;;;;;;;;;;;;;12.09;86.19;100037.47;5055029;28;19935;-58
2023/04/11 05:52:07;;;;;;;;;;;;;;;12.06;85.67;100032.22;5070193;28;20459;-58
2023/04/11 05:54:34;;;;;;;;;;;;;;;12.05;85.56;100043.81;5069942;28;19931;-58
2023/04/11 05:57:00;;;;;;;;;;;;;;;12.12;86.03;100040.00;5068459;28;20383;-58
2023/04/11 05:59:27;;;;;;;;;;;;;;;12.11;85.62;100042.72;5070048;28;19935;-58
2023/04/11 06:01:53;;;;;;;;;;;;;;;12.10;86.13;100039.19;5069000;28;20450;-58
2023/04/11 06:04:18;;;;;;;;;;;;;;;12.16;85.64;100052.28;5072099;28;19933;-58
2023/04/11 06:06:43;;;;;;;;;;;;;;;12.17;85.71;100056.69;5080618;28;19941;-59
2023/04/11 06:09:09;;;;;;;;;;;;;;;12.18;85.96;100058.41;5068967;28;20008;-58
2023/04/11 06:11:35;;;;;;;;;;;;;;;12.13;86.05;100055.06;5070559;28;19941;-58
2023/04/11 06:14:00;;;;;;;;;;;;;;;12.16;86.05;100057.59;5072876;28;19936;-58
2023/04/11 06:16:25;;;;;;;;;;;;;;;12.27;86.00;100063.41;5071685;28;19951;-58
2023/04/11 06:18:51;;;;;;;;;;;;;;;12.23;86.06;100064.44;5074043;28;19934;-58
2023/04/11 06:21:16;;;;;;;;;;;;;;;12.32;85.32;100053.41;5061101;28;20395;-58
2023/04/11 06:23:41;;;;;;;;;;;;;;;12.34;84.59;100058.72;5073478;28;19928;-58
2023/04/11 06:26:07;;;;;;;;;;;;;;;12.33;85.16;100057.84;5073116;28;19930;-58
2023/04/11 06:28:32;;;;;;;;;;;;;;;12.42;84.40;100056.59;5072154;28;20486;-58
2023/04/11 06:30:57;;;;;;;;;;;;;;;12.48;84.33;100057.22;5064497;28;19965;-58
2023/04/11 06:33:22;;;;;;;;;;;;;;;12.54;84.83;100050.75;5053858;28;20036;-58
2023/04/11 06:35:48;;;;;;;;;;;;;;;12.51;83.44;100059.78;5071678;28;19951;-59
2023/04/11 06:38:13;;;;;;;;;;;;;;;12.50;82.36;100054.50;5071702;28;19941;-58
2023/04/11 06:40:38;;;;;;;;;;;;;;;12.59;83.00;100060.34;5071146;28;19935;-58
2023/04/11 06:43:03;;;;;;;;;;;;;;;12.60;82.49;100067.41;5072551;28;19943;-58
2023/04/11 06:45:29;;;;;;;;;;;;;;;12.68;81.74;100078.66;5064944;28;20315;-58
2023/04/11 06:47:54;;;;;;;;;;;;;;;12.70;81.92;100071.44;5073255;28;19927;-58
2023/04/11 06:50:19;;;;;;;;;;;;;;;12.82;81.37;100073.63;5073056;28;19953;-58
2023/04/11 06:52:45;;;;;;;;;;;;;;;12.86;81.39;100077.91;5072356;28;19958;-59
2023/04/11 06:55:13;;;;;;;;;;;;;;;12.90;81.03;100091.97;5073024;28;19963;-58
2023/04/11 06:57:38;;;;;;;;;;;;;;;12.97;80.52;100107.72;5072362;28;19933;-58
2023/04/11 07:00:06;;;;;;;;;;;;;;;12.98;80.51;100112.09;5072803;28;19964;-59
2023/04/11 07:02:34;;;;;;;;;;;;;;;13.08;80.00;100120.63;5072780;28;20012;-58
2023/04/11 07:04:59;;;;;;;;;;;;;;;13.17;78.77;100113.13;5079716;28;19990;-58
2023/04/11 07:07:24;;;;;;;;;;;;;;;13.30;78.26;100120.63;5078097;28;19990;-58
2023/04/11 07:09:50;;;;;;;;;;;;;;;13.37;78.57;100117.63;5072311;28;19931;-58
2023/04/11 07:12:15;;;;;;;;;;;;;;;13.44;77.59;100123.59;5073078;28;19980;-58
2023/04/11 07:14:40;;;;;;;;;;;;;;;13.73;77.30;100117.84;5067406;28;20424;-58
2023/04/11 07:17:05;;;;;;;;;;;;;;;14.27;75.43;100118.97;5053073;28;20008;-58
2023/04/11 07:19:31;;;;;;;;;;;;;;;14.73;72.15;100119.50;5062184;28;19931;-58
2023/04/11 07:21:57;;;;;;;;;;;;;;;14.82;69.80;100119.91;5073003;28;19928;-58
2023/04/11 07:24:22;;;;;;;;;;;;;;;14.84;70.48;100126.06;5070902;28;19937;-58
2023/04/11 07:26:49;;;;;;;;;;;;;;;15.09;69.96;100118.56;5072471;28;19986;-58
2023/04/11 07:29:15;;;;;;;;;;;;;;;15.09;69.67;100118.56;5072112;28;19944;-59
2023/04/11 07:31:40;;;;;;;;;;;;;;;15.14;70.11;100116.53;5071438;28;19937;-58
2023/04/11 07:34:06;;;;;;;;;;;;;;;15.33;70.83;100138.81;5072414;28;19946;-58
2023/04/11 07:36:31;;;;;;;;;;;;;;;15.63;68.40;100131.91;5063164;28;20775;-58
2023/04/11 07:38:58;;;;;;;;;;;;;;;15.55;64.67;100126.06;5072178;28;19934;-58
2023/04/11 07:41:24;;;;;;;;;;;;;;;15.69;65.33;100131.59;5071422;28;20027;-58
2023/04/11 07:43:49;;;;;;;;;;;;;;;16.33;63.42;100128.19;5068141;28;20686;-58
2023/04/11 07:46:14;;;;;;;;;;;;;;;16.50;62.74;100141.59;5071131;28;20363;-58
2023/04/11 07:48:40;;;;;;;;;;;;;;;16.38;63.41;100145.78;5072171;28;19971;-58
2023/04/11 07:51:05;;;;;;;;;;;;;;;16.63;64.02;100131.94;5071432;28;20381;-58
2023/04/11 07:53:32;;;;;;;;;;;;;;;16.93;62.43;100135.59;5072249;28;19932;-58
2023/04/11 07:55:57;;;;;;;;;;;;;;;16.80;59.77;100134.53;5071898;28;19977;-58
2023/04/11 07:58:22;;;;;;;;;;;;;;;16.44;59.71;100137.41;5070779;28;20239;-59
2023/04/11 08:00:49;;;;;;;;;;;;;;;16.20;62.92;100145.91;5070734;28;20508;-58
2023/04/11 08:03:15;;;;;;;;;;;;;;;16.00;61.77;100146.09;5071732;28;19968;-58
2023/04/11 08:05:40;;;;;;;;;;;;;;;15.89;62.55;100146.66;5084729;28;19953;-58
2023/04/11 08:08:06;;;;;;;;;;;;;;;15.73;62.43;100141.22;5069912;28;19998;-58
2023/04/11 08:10:32;;;;;;;;;;;;;;;15.46;62.73;100150.69;5070817;28;19963;-58
2023/04/11 08:12:57;;;;;;;;;;;;;;;15.40;63.33;100150.97;5070212;28;19932;-58
2023/04/11 08:15:23;;;;;;;;;;;;;;;15.15;62.54;100144.19;5071339;28;19960;-58
2023/04/11 08:17:48;;;;;;;;;;;;;;;14.80;63.63;100137.00;5070806;28;19924;-58
2023/04/11 08:20:14;;;;;;;;;;;;;;;14.66;66.88;100140.34;5069791;28;19939;-58
2023/04/11 08:22:43;;;;;;;;;;;;;;;14.72;67.56;100140.03;5071249;28;19929;-58
2023/04/11 08:25:09;;;;;;;;;;;;;;;14.40;69.03;100154.91;5071716;28;19983;-58
2023/04/11 08:27:34;;;;;;;;;;;;;;;14.49;70.17;100154.50;5056784;28;19930;-58
2023/04/11 08:30:00;;;;;;;;;;;;;;;14.43;71.20;100152.09;5070956;28;20021;-58
2023/04/11 08:32:26;;;;;;;;;;;;;;;14.68;70.49;100145.63;5071241;28;19933;-58
2023/04/11 08:34:51;;;;;;;;;;;;;;;14.99;69.87;100152.09;5070213;28;19945;-59
2023/04/11 08:37:16;;;;;;;;;;;;;;;15.80;68.95;100139.97;5070231;28;20357;-58
2023/04/11 08:39:42;;;;;;;;;;;;;;;16.29;65.87;100140.91;5071259;28;19937;-58
2023/04/11 08:42:20;;;;;;;;;;;;;;;16.39;63.94;100143.97;5071052;28;20056;-58
2023/04/11 08:44:50;;;;;;;;;;;;;;;16.32;58.82;100138.09;5071078;28;19961;-58
2023/04/11 08:47:15;;;;;;;;;;;;;;;16.34;61.02;100146.06;5070236;28;19940;-58
2023/04/11 08:49:41;;;;;;;;;;;;;;;15.90;60.88;100150.22;5070967;28;19956;-58
2023/04/11 08:52:06;;;;;;;;;;;;;;;15.53;60.10;100153.91;5069733;28;19924;-58
2023/04/11 08:54:31;;;;;;;;;;;;;;;15.17;61.74;100153.03;5070892;28;20400;-58
2023/04/11 08:56:56;;;;;;;;;;;;;;;14.83;62.56;100158.25;5071012;28;19949;-58
2023/04/11 08:59:22;;;;;;;;;;;;;;;14.46;65.02;100164.50;5070039;28;20025;-58
2023/04/11 09:01:48;;;;;;;;;;;;;;;14.33;65.66;100163.31;5070991;28;19925;-58
2023/04/11 09:04:13;;;;;;;;;;;;;;;14.33;65.75;100158.81;5071565;28;19942;-58
2023/04/11 09:06:41;;;;;;;;;;;;;;;14.47;67.41;100161.75;5082050;28;19932;-58
2023/04/11 09:09:07;;;;;;;;;;;;;;;14.93;67.04;100152.41;5069815;28;19923;-58
2023/04/11 09:11:52;;;;;;;;;;;;;;;15.04;64.76;100167.97;5070199;28;19955;-58
2023/04/11 09:14:17;;;;;;;;;;;;;;;15.19;63.48;100168.06;5070488;28;19935;-58
2023/04/11 09:16:53;;;;;;;;;;;;;;;15.17;60.67;100164.59;5064879;28;20443;-59
2023/04/11 09:19:25;;;;;;;;;;;;;;;15.10;60.76;100163.19;5054801;28;20388;-59
2023/04/11 09:21:51;;;;;;;;;;;;;;;15.13;60.94;100157.66;5055273;28;19936;-58
2023/04/11 09:24:17;;;;;;;;;;;;;;;15.31;60.98;100166.59;5069546;28;20521;-58
2023/04/11 09:26:42;;;;;;;;;;;;;;;15.38;60.85;100160.88;5069256;28;20019;-58
2023/04/11 09:29:07;;;;;;;;;;;;;;;15.68;60.15;100166.56;5058324;28;19935;-58
2023/04/11 09:31:41;;;;;;;;;;;;;;;15.88;60.19;100163.69;5049775;28;19976;-58
2023/04/11 09:34:06;;;;;;;;;;;;;;;16.01;61.25;100166.63;5058018;28;19983;-58
2023/04/11 09:36:31;;;;;;;;;;;;;;;16.16;58.99;100163.97;5070201;28;20006;-58
2023/04/11 09:38:57;;;;;;;;;;;;;;;16.23;59.78;100170.78;5070406;28;19945;-58
2023/04/11 09:41:31;;;;;;;;;;;;;;;16.28;58.11;100174.06;5069148;28;19984;-59
2023/04/11 09:43:57;;;;;;;;;;;;;;;16.74;59.55;100167.97;5070257;28;19947;-59
2023/04/11 09:46:23;;;;;;;;;;;;;;;17.31;56.41;100166.53;5067257;28;19934;-58
2023/04/11 09:48:49;;;;;;;;;;;;;;;17.46;55.90;100167.50;5069861;28;19943;-58
2023/04/11 09:51:15;;;;;;;;;;;;;;;17.46;54.80;100162.97;5070244;28;20395;-58
2023/04/11 09:53:40;;;;;;;;;;;;;;;17.52;53.23;100168.00;5069864;28;19945;-58
2023/04/11 09:56:06;;;;;;;;;;;;;;;17.57;53.18;100167.72;5068320;28;20384;-58
2023/04/11 09:58:37;;;;;;;;;;;;;;;17.35;54.12;100165.38;5068875;28;20400;-58
2023/04/11 10:01:06;;;;;;;;;;;;;;;17.03;53.60;100164.53;5069898;28;20409;-58
2023/04/11 10:03:33;;;;;;;;;;;;;;;16.97;54.59;100169.38;5068911;28;19951;-58
2023/04/11 10:05:59;;;;;;;;;;;;;;;16.78;55.74;100168.69;5082990;28;19991;-58
2023/04/11 10:08:29;;;;;;;;;;;;;;;16.84;56.72;100168.34;5069115;28;19975;-58
2023/04/11 10:10:55;;;;;;;;;;;;;;;17.12;52.09;100168.53;5069868;28;19928;-58
2023/04/11 10:13:37;;;;;;;;;;;;;;;17.21;51.12;100165.31;5069120;28;20409;-58
2023/04/11 10:16:09;;;;;;;;;;;;;;;17.55;53.25;100165.13;5060265;28;20044;-58
2023/04/11 10:18:57;;;;;;;;;;;;;;;17.63;51.48;100157.47;5069833;28;19923;-58
2023/04/11 10:21:31;;;;;;;;;;;;;;;17.55;51.12;100151.69;5068684;28;19933;-58
2023/04/11 10:24:09;;;;;;;;;;;;;;;17.23;52.00;100158.03;5052025;28;19943;-58
2023/04/11 10:26:53;;;;;;;;;;;;;;;16.99;50.45;100145.97;5062724;28;20591;-58
2023/04/11 10:29:28;;;;;;;;;;;;;;;16.82;50.28;100159.47;5048783;28;19964;-58
2023/04/11 10:32:12;;;;;;;;;;;;;;;16.87;52.14;100162.78;5049674;28;20397;-58
2023/04/11 10:34:40;;;;;;;;;;;;;;;16.48;48.50;100165.88;5068224;28;20703;-58
2023/04/11 10:37:07;;;;;;;;;;;;;;;16.43;50.20;100164.31;5066745;28;19957;-58
2023/04/11 10:39:50;;;;;;;;;;;;;;;16.55;51.24;100169.06;5068853;28;20030;-58
2023/04/11 10:42:37;;;;;;;;;;;;;;;16.56;50.36;100168.13;5068436;28;19937;-58
2023/04/11 10:45:21;;;;;;;;;;;;;;;16.76;51.26;100162.53;5067752;28;20002;-58
2023/04/11 10:47:58;;;;;;;;;;;;;;;16.83;49.96;100151.38;5068277;28;19934;-58
2023/04/11 10:50:26;;;;;;;;;;;;;;;16.75;48.66;100158.13;5066998;28;19951;-58
2023/04/11 10:53:02;;;;;;;;;;;;;;;16.85;47.75;100165.56;5068609;28;19966;-57
2023/04/11 10:55:29;;;;;;;;;;;;;;;17.03;48.32;100163.69;5067300;28;19956;-58
2023/04/11 10:58:05;;;;;;;;;;;;;;;17.20;48.83;100160.88;5068818;28;19940;-58
2023/04/11 11:00:52;;;;;;;;;;;;;;;17.28;49.12;100168.53;5072435;28;19955;-58
2023/04/11 11:03:25;;;;;;;;;;;;;;;17.38;48.24;100169.72;5072210;28;19942;-58
2023/04/11 11:06:03;;;;;;;;;;;;;;;17.18;48.31;100176.25;5085975;28;20443;-58
2023/04/11 11:08:29;;;;;;;;;;;;;;;16.70;47.78;100170.94;5072419;28;19938;-58
2023/04/11 11:11:07;;;;;;;;;;;;;;;16.86;49.37;100171.81;5073283;28;19933;-58
2023/04/11 11:13:43;;;;;;;;;;;;;;;16.43;47.14;100184.00;5072266;28;19945;-58
2023/04/11 11:16:09;;;;;;;;;;;;;;;16.77;48.50;100178.56;5071427;28;19951;-58
2023/04/11 11:18:35;;;;;;;;;;;;;;;16.96;47.25;100173.03;5069599;28;19942;-57
2023/04/11 11:21:01;;;;;;;;;;;;;;;17.06;48.54;100172.44;5072216;28;19933;-58
2023/04/11 11:23:26;;;;;;;;;;;;;;;17.13;49.23;100165.75;5071905;28;19927;-58
2023/04/11 11:25:52;;;;;;;;;;;;;;;17.20;48.30;100166.25;5070622;28;20662;-58
2023/04/11 11:28:18;;;;;;;;;;;;;;;17.23;47.69;100166.13;5069710;28;19947;-58
2023/04/11 11:30:50;;;;;;;;;;;;;;;17.22;48.26;100169.72;5072610;28;19927;-58
2023/04/11 11:33:17;;;;;;;;;;;;;;;17.29;48.16;100176.50;5071767;28;19929;-57
2023/04/11 11:35:44;;;;;;;;;;;;;;;17.73;48.29;100176.63;5071863;28;20041;-58
2023/04/11 11:38:10;;;;;;;;;;;;;;;18.05;46.87;100179.16;5072629;28;20004;-57
2023/04/11 11:40:35;;;;;;;;;;;;;;;18.22;46.84;100181.66;5071686;28;19934;-58
2023/04/11 11:43:01;;;;;;;;;;;;;;;18.10;44.70;100176.16;5072423;28;20330;-58
2023/04/11 11:45:26;;;;;;;;;;;;;;;18.08;44.33;100181.66;5072139;28;19929;-58
2023/04/11 11:47:51;;;;;;;;;;;;;;;18.02;43.63;100190.06;5071419;28;20029;-58
2023/04/11 11:50:26;;;;;;;;;;;;;;;17.73;43.08;100187.38;5057702;28;19939;-58
2023/04/11 11:52:52;;;;;;;;;;;;;;;17.61;44.24;100188.13;5057654;28;19946;-58
2023/04/11 11:55:17;;;;;;;;;;;;;;;17.76;44.38;100182.69;5071879;28;19963;-58
2023/04/11 11:57:44;;;;;;;;;;;;;;;18.00;43.01;100175.88;5071910;28;20022;-58
2023/04/11 12:00:09;;;;;;;;;;;;;;;18.12;43.52;100188.56;5071088;28;19939;-58
2023/04/11 12:02:35;;;;;;;;;;;;;;;18.64;44.46;100182.69;5072241;28;20000;-58
2023/04/11 12:05:02;;;;;;;;;;;;;;;19.01;43.32;100177.56;5070339;28;19944;-58
2023/04/11 12:07:32;;;;;;;;;;;;;;;19.20;43.37;100178.09;5067732;28;20024;-58
2023/04/11 12:10:07;;;;;;;;;;;;;;;19.34;42.72;100179.94;5071981;28;19969;-58
2023/04/11 12:12:33;;;;;;;;;;;;;;;18.87;44.21;100179.41;5071361;28;19978;-58
2023/04/11 12:14:59;;;;;;;;;;;;;;;19.18;44.32;100174.63;5071792;28;19932;-58
2023/04/11 12:17:24;;;;;;;;;;;;;;;19.56;43.93;100166.75;5071588;28;19949;-58
2023/04/11 12:19:54;;;;;;;;;;;;;;;19.60;42.42;100170.97;5069989;28;20317;-58
2023/04/11 12:22:19;;;;;;;;;;;;;;;19.61;44.52;100164.59;5070440;28;19937;-58
2023/04/11 12:24:45;;;;;;;;;;;;;;;19.57;43.17;100165.78;5069753;28;19932;-58
2023/04/11 12:27:11;;;;;;;;;;;;;;;19.24;43.55;100159.91;5070531;28;19936;-58
2023/04/11 12:29:36;;;;;;;;;;;;;;;18.82;44.47;100160.84;5071185;28;20054;-58
2023/04/11 12:32:02;;;;;;;;;;;;;;;18.75;44.80;100155.91;5071256;28;20418;-58
2023/04/11 12:34:28;;;;;;;;;;;;;;;18.62;45.08;100146.88;5070787;28;20114;-58
2023/04/11 12:36:53;;;;;;;;;;;;;;;18.40;44.53;100151.91;5071167;28;19952;-58